Time;durP1;ratioP1;P1;durP2;ratioP2;P2;SDS_P1;SDS_P2;PMS_P1;PMS_P2;Temp;Humidity;BMP_temperature;BMP_pressure;BME280_temperature;BME280_humidity;BME280_pressure;Samples;Min_cycle;Max_cycle;Signal;HPM_P1;HPM_P2
2021/08/06 00:01:05;;;;;;;20.83;19.73;;;17.80;86.10;;;;;;5044796;28;20461;-74
2021/08/06 00:03:34;;;;;;;20.90;19.80;;;17.80;86.10;;;;;;5040569;28;20573;-74
2021/08/06 00:06:01;;;;;;;21.07;20.07;;;17.80;86.10;;;;;;5043600;28;20521;-74
2021/08/06 00:08:28;;;;;;;21.13;19.93;;;17.80;86.10;;;;;;5042706;28;20548;-74
2021/08/06 00:10:55;;;;;;;21.23;20.13;;;17.80;86.10;;;;;;5037022;28;20461;-74
2021/08/06 00:13:22;;;;;;;20.73;19.73;;;17.80;86.20;;;;;;5041141;28;20461;-74
2021/08/06 00:15:49;;;;;;;22.00;20.80;;;17.70;86.20;;;;;;5034481;28;20509;-74
2021/08/06 00:18:16;;;;;;;21.17;20.07;;;17.80;86.00;;;;;;5043399;28;20462;-74
2021/08/06 00:20:45;;;;;;;21.70;20.60;;;17.80;85.80;;;;;;5043554;28;20890;-74
2021/08/06 00:23:12;;;;;;;21.30;20.30;;;17.80;85.60;;;;;;5046370;28;20459;-74
2021/08/06 00:25:39;;;;;;;21.27;20.27;;;17.80;85.40;;;;;;5034777;28;20542;-74
2021/08/06 00:28:06;;;;;;;21.47;20.40;;;17.80;85.40;;;;;;5045108;28;20478;-74
2021/08/06 00:30:33;;;;;;;21.70;20.40;;;17.80;85.50;;;;;;5041837;28;20458;-74
2021/08/06 00:33:00;;;;;;;22.03;20.93;;;17.80;85.50;;;;;;5044745;28;20833;-74
2021/08/06 00:35:27;;;;;;;21.10;20.00;;;17.80;85.70;;;;;;5043279;28;20570;-74
2021/08/06 00:37:55;;;;;;;21.43;20.23;;;17.80;85.40;;;;;;5040821;28;20486;-74
2021/08/06 00:40:23;;;;;;;21.33;20.33;;;17.70;85.90;;;;;;5042612;28;20515;-74
2021/08/06 00:42:51;;;;;;;21.70;20.50;;;17.70;86.00;;;;;;5039338;28;20466;-74
2021/08/06 00:45:18;;;;;;;21.47;20.37;;;17.70;86.10;;;;;;5042478;28;20574;-74
2021/08/06 00:47:46;;;;;;;21.13;20.13;;;17.60;86.20;;;;;;5037356;28;20497;-74
2021/08/06 00:50:13;;;;;;;21.20;20.20;;;17.60;86.30;;;;;;5037955;28;20466;-74
2021/08/06 00:52:42;;;;;;;21.40;20.00;;;17.50;86.00;;;;;;5040151;28;20485;-74
2021/08/06 00:55:11;;;;;;;21.30;20.10;;;17.50;86.10;;;;;;5044997;28;20570;-74
2021/08/06 00:57:38;;;;;;;21.60;20.50;;;17.50;86.10;;;;;;5039735;28;20470;-74
2021/08/06 01:00:07;;;;;;;20.97;19.97;;;17.50;85.80;;;;;;5039879;28;20461;-74
2021/08/06 01:02:42;;;;;;;21.83;20.73;;;17.50;85.80;;;;;;5044138;28;20468;-74
2021/08/06 01:05:12;;;;;;;22.93;21.80;;;17.50;85.80;;;;;;5036939;28;20460;-74
2021/08/06 01:07:47;;;;;;;22.60;21.00;;;17.40;85.90;;;;;;5036502;28;20485;-74
2021/08/06 01:10:18;;;;;;;22.23;21.10;;;17.50;85.60;;;;;;5039480;28;20452;-74
2021/08/06 01:12:51;;;;;;;21.90;20.80;;;17.50;85.30;;;;;;5032893;28;20466;-74
2021/08/06 01:15:19;;;;;;;21.80;20.77;;;17.40;85.40;;;;;;5039263;28;20474;-74
2021/08/06 01:17:47;;;;;;;22.20;21.10;;;17.40;85.40;;;;;;5045735;28;20479;-74
2021/08/06 01:20:17;;;;;;;21.63;20.53;;;17.50;85.20;;;;;;5039064;28;20477;-74
2021/08/06 01:22:50;;;;;;;22.43;21.33;;;17.50;85.20;;;;;;5037272;28;20484;-74
2021/08/06 01:25:48;;;;;;;21.60;20.50;;;17.50;85.30;;;;;;5044360;28;20533;-74
2021/08/06 01:28:17;;;;;;;21.70;20.53;;;17.50;85.30;;;;;;5036290;28;20457;-73
2021/08/06 01:30:45;;;;;;;21.83;20.77;;;17.50;85.10;;;;;;5042593;28;20985;-74
2021/08/06 01:33:13;;;;;;;21.80;20.70;;;17.40;85.20;;;;;;5040991;28;20534;-74
2021/08/06 01:35:41;;;;;;;21.83;20.73;;;17.40;85.20;;;;;;5043821;28;20470;-74
2021/08/06 01:38:08;;;;;;;21.80;20.70;;;17.40;85.20;;;;;;5043025;28;20485;-74
2021/08/06 01:40:41;;;;;;;21.70;20.60;;;17.40;85.20;;;;;;5041986;28;20546;-74
2021/08/06 01:43:17;;;;;;;21.60;20.50;;;17.40;85.30;;;;;;5052448;28;20455;-74
2021/08/06 01:45:50;;;;;;;21.90;20.80;;;17.40;85.40;;;;;;5048074;28;20457;-74
2021/08/06 01:48:23;;;;;;;21.60;20.50;;;17.40;85.20;;;;;;5046519;28;20562;-74
2021/08/06 01:50:51;;;;;;;22.20;21.10;;;17.50;85.30;;;;;;5046630;28;20459;-74
2021/08/06 01:53:20;;;;;;;21.70;20.60;;;17.50;85.20;;;;;;5049874;28;20479;-74
2021/08/06 01:55:53;;;;;;;22.00;20.80;;;17.50;85.10;;;;;;5048278;28;20486;-73
2021/08/06 01:58:23;;;;;;;23.23;22.03;;;17.50;85.30;;;;;;5050325;28;20976;-74
2021/08/06 02:00:50;;;;;;;21.67;20.53;;;17.50;85.30;;;;;;5047013;28;20460;-74
2021/08/06 02:03:18;;;;;;;22.57;21.47;;;17.50;85.20;;;;;;5043356;28;21051;-74
2021/08/06 02:05:49;;;;;;;22.23;21.07;;;17.50;85.40;;;;;;5045769;28;20461;-74
2021/08/06 02:08:16;;;;;;;21.30;20.20;;;17.50;85.40;;;;;;5043276;28;20939;-74
2021/08/06 02:10:43;;;;;;;22.17;21.03;;;17.50;85.40;;;;;;5042759;28;20465;-74
2021/08/06 02:13:10;;;;;;;21.20;20.10;;;17.50;85.50;;;;;;5044891;28;20481;-74
2021/08/06 02:15:42;;;;;;;21.63;20.53;;;17.50;85.50;;;;;;5045810;28;20477;-74
2021/08/06 02:18:11;;;;;;;22.33;21.13;;;17.50;85.50;;;;;;5040426;28;20493;-74
2021/08/06 02:20:38;;;;;;;23.43;22.23;;;17.50;85.50;;;;;;5045240;28;20983;-74
2021/08/06 02:23:07;;;;;;;21.20;20.10;;;17.50;85.40;;;;;;5044369;28;20469;-74
2021/08/06 02:25:35;;;;;;;21.10;20.10;;;17.40;85.50;;;;;;5045265;28;20458;-74
2021/08/06 02:28:02;;;;;;;21.90;20.80;;;17.40;85.70;;;;;;5051431;28;20566;-74
2021/08/06 02:30:30;;;;;;;21.43;20.33;;;17.40;85.60;;;;;;5044460;28;20960;-74
2021/08/06 02:33:00;;;;;;;21.50;20.30;;;17.50;85.30;;;;;;5039047;28;20564;-74
2021/08/06 02:35:27;;;;;;;21.90;20.40;;;17.50;85.00;;;;;;5042191;28;20569;-74
2021/08/06 02:37:53;;;;;;;21.30;20.20;;;17.50;84.90;;;;;;5041739;28;20485;-74
2021/08/06 02:40:20;;;;;;;23.40;22.20;;;17.60;84.60;;;;;;5048839;28;20532;-74
2021/08/06 02:42:48;;;;;;;22.00;20.50;;;17.60;84.60;;;;;;5049052;28;20459;-74
2021/08/06 02:45:15;;;;;;;21.83;20.53;;;17.60;84.10;;;;;;5039488;28;20458;-74
2021/08/06 02:47:43;;;;;;;21.67;20.57;;;17.60;84.10;;;;;;5043145;28;20475;-74
2021/08/06 02:50:13;;;;;;;25.80;24.40;;;17.60;83.90;;;;;;5041916;28;21001;-74
2021/08/06 02:52:41;;;;;;;22.00;20.90;;;17.60;83.90;;;;;;5041480;28;20474;-74
2021/08/06 02:55:09;;;;;;;22.37;21.07;;;17.60;83.80;;;;;;5039424;28;20482;-74
2021/08/06 02:57:36;;;;;;;22.90;21.80;;;17.70;83.70;;;;;;5048059;28;20510;-74
2021/08/06 03:00:04;;;;;;;22.60;21.40;;;17.70;83.60;;;;;;5044682;28;20477;-74
2021/08/06 03:02:30;;;;;;;22.67;21.40;;;17.70;83.70;;;;;;5046315;28;20555;-74
2021/08/06 03:04:57;;;;;;;22.40;21.30;;;17.70;83.80;;;;;;5044938;28;20530;-74
2021/08/06 03:07:26;;;;;;;23.20;21.60;;;17.80;83.40;;;;;;5048319;28;20558;-74
2021/08/06 03:09:52;;;;;;;25.20;23.43;;;17.70;83.70;;;;;;5039905;28;20526;-74
2021/08/06 03:12:19;;;;;;;24.67;23.27;;;17.70;83.40;;;;;;5042363;28;20467;-74
2021/08/06 03:14:46;;;;;;;23.97;22.77;;;17.80;83.20;;;;;;5040914;28;20458;-74
2021/08/06 03:17:13;;;;;;;22.80;21.70;;;17.80;83.00;;;;;;5042822;28;20485;-74
2021/08/06 03:19:40;;;;;;;28.33;26.80;;;17.80;83.20;;;;;;5046481;28;20533;-74
2021/08/06 03:22:07;;;;;;;28.43;27.03;;;17.80;83.30;;;;;;5038670;28;20566;-74
2021/08/06 03:24:35;;;;;;;29.30;27.90;;;17.80;83.20;;;;;;5039208;28;20466;-74
2021/08/06 03:27:02;;;;;;;22.87;21.67;;;17.80;83.30;;;;;;5038189;28;20478;-74
2021/08/06 03:29:29;;;;;;;22.00;20.90;;;17.80;83.00;;;;;;5038024;28;20459;-74
2021/08/06 03:31:56;;;;;;;22.63;21.23;;;17.80;82.90;;;;;;5047787;28;20558;-74
2021/08/06 03:34:23;;;;;;;25.67;23.83;;;17.90;82.90;;;;;;5040156;28;20472;-74
2021/08/06 03:36:50;;;;;;;27.13;25.60;;;17.90;82.60;;;;;;5046880;28;20993;-74
2021/08/06 03:39:17;;;;;;;22.73;21.43;;;17.80;82.80;;;;;;5040574;28;20547;-74
2021/08/06 03:41:45;;;;;;;28.10;26.70;;;17.80;82.80;;;;;;5045404;28;20537;-74
2021/08/06 03:44:12;;;;;;;24.27;22.73;;;17.80;82.80;;;;;;5045987;28;20971;-74
2021/08/06 03:46:38;;;;;;;27.27;25.80;;;17.90;82.40;;;;;;5040673;28;20480;-74
2021/08/06 03:49:05;;;;;;;25.77;24.27;;;17.90;82.20;;;;;;5036835;28;20455;-74
2021/08/06 03:51:32;;;;;;;25.23;23.83;;;17.90;81.80;;;;;;5047727;28;20983;-74
2021/08/06 03:53:59;;;;;;;24.40;23.10;;;17.90;81.50;;;;;;5036452;28;20473;-74
2021/08/06 03:56:26;;;;;;;26.60;25.20;;;17.90;81.40;;;;;;5043569;28;20565;-74
2021/08/06 03:58:54;;;;;;;25.03;23.67;;;18.00;81.10;;;;;;5038151;28;20535;-74
2021/08/06 04:01:21;;;;;;;28.27;26.67;;;18.00;81.00;;;;;;5035958;28;20844;-74
2021/08/06 04:03:48;;;;;;;25.47;24.07;;;18.00;80.50;;;;;;5039720;28;20459;-74
2021/08/06 04:06:15;;;;;;;26.43;25.03;;;18.00;80.10;;;;;;5048060;28;20646;-74
2021/08/06 04:08:42;;;;;;;25.90;24.40;;;18.10;80.00;;;;;;5037448;28;21219;-74
2021/08/06 04:11:09;;;;;;;25.73;24.33;;;18.00;80.30;;;;;;5037012;28;20455;-74
2021/08/06 04:13:35;;;;;;;26.00;24.70;;;18.00;80.60;;;;;;5042806;28;20459;-74
2021/08/06 04:16:04;;;;;;;29.10;27.40;;;18.00;80.60;;;;;;5046653;28;20487;-74
2021/08/06 04:18:31;;;;;;;24.60;23.20;;;18.10;80.70;;;;;;5042068;28;20456;-74
2021/08/06 04:21:00;;;;;;;25.63;24.23;;;18.10;80.90;;;;;;5045906;28;20459;-74
2021/08/06 04:23:27;;;;;;;26.00;24.40;;;18.00;81.00;;;;;;5048284;28;20462;-74
2021/08/06 04:25:54;;;;;;;25.67;24.27;;;18.00;81.10;;;;;;5046410;28;20466;-74
2021/08/06 04:28:21;;;;;;;24.57;23.20;;;18.00;81.20;;;;;;5046577;28;20466;-74
2021/08/06 04:30:48;;;;;;;25.20;23.80;;;18.00;81.20;;;;;;5045271;28;20465;-74
2021/08/06 04:33:16;;;;;;;25.30;24.00;;;18.00;81.40;;;;;;5046823;28;20455;-78
2021/08/06 04:35:43;;;;;;;27.70;26.30;;;18.00;81.60;;;;;;5038616;28;20474;-73
2021/08/06 04:38:10;;;;;;;26.17;24.80;;;18.10;81.80;;;;;;5045074;28;20478;-73
2021/08/06 04:40:38;;;;;;;26.13;24.60;;;18.00;82.60;;;;;;5038153;28;20466;-73
2021/08/06 04:43:05;;;;;;;26.60;25.10;;;18.00;83.20;;;;;;5037492;28;20456;-74
2021/08/06 04:45:32;;;;;;;25.17;23.83;;;18.00;83.70;;;;;;5033169;28;20554;-73
2021/08/06 04:48:00;;;;;;;26.50;25.10;;;18.00;84.00;;;;;;5047273;28;20492;-73
2021/08/06 04:50:29;;;;;;;25.33;24.00;;;18.00;84.00;;;;;;5039214;28;20459;-73
2021/08/06 04:52:56;;;;;;;25.17;23.87;;;17.90;84.60;;;;;;5045567;28;20466;-74
2021/08/06 04:55:24;;;;;;;24.80;23.40;;;17.90;84.50;;;;;;5038687;28;20504;-73
2021/08/06 04:57:51;;;;;;;26.33;24.93;;;17.90;84.60;;;;;;5046859;28;20557;-74
2021/08/06 05:00:19;;;;;;;23.93;22.70;;;17.90;84.80;;;;;;5043783;28;20477;-73
2021/08/06 05:02:47;;;;;;;27.37;25.97;;;17.90;84.90;;;;;;5041214;28;20585;-73
2021/08/06 05:05:14;;;;;;;25.60;24.30;;;17.90;85.20;;;;;;5041144;28;20806;-74
2021/08/06 05:07:49;;;;;;;23.93;22.73;;;17.90;85.40;;;;;;5038811;28;20535;-74
2021/08/06 05:10:17;;;;;;;25.30;24.00;;;17.90;85.50;;;;;;5045688;28;20459;-73
2021/08/06 05:12:44;;;;;;;25.40;24.00;;;17.80;85.90;;;;;;5049508;28;20469;-74
2021/08/06 05:15:12;;;;;;;23.50;22.40;;;17.90;86.30;;;;;;5044867;28;20461;-74
2021/08/06 05:17:39;;;;;;;26.23;24.80;;;17.80;86.70;;;;;;5048556;28;21018;-74
2021/08/06 05:20:07;;;;;;;24.67;23.47;;;17.80;87.20;;;;;;5048753;28;20959;-73
2021/08/06 05:22:34;;;;;;;25.37;23.47;;;17.70;87.20;;;;;;5047819;28;21018;-73
2021/08/06 05:25:05;;;;;;;24.50;23.30;;;17.70;87.90;;;;;;5050147;28;20553;-74
2021/08/06 05:27:32;;;;;;;23.50;22.30;;;17.70;88.00;;;;;;5051760;28;20474;-73
2021/08/06 05:29:59;;;;;;;24.90;23.60;;;17.70;88.50;;;;;;5051438;28;20465;-73
2021/08/06 05:32:25;;;;;;;22.10;20.90;;;17.70;88.70;;;;;;5044968;28;21933;-73
2021/08/06 05:34:52;;;;;;;23.90;22.60;;;17.70;88.80;;;;;;5047365;28;20674;-74
2021/08/06 05:37:19;;;;;;;22.70;21.53;;;17.60;89.00;;;;;;5047172;28;20480;-75
2021/08/06 05:39:46;;;;;;;21.17;20.07;;;17.60;90.10;;;;;;5050547;28;20537;-75
2021/08/06 05:42:14;;;;;;;21.33;20.23;;;17.60;89.80;;;;;;5047239;28;20988;-75
2021/08/06 05:44:41;;;;;;;23.50;22.30;;;17.70;89.60;;;;;;5050171;28;20287;-77
2021/08/06 05:47:08;;;;;;;23.70;22.53;;;17.70;89.30;;;;;;5047509;28;20484;-74
2021/08/06 05:49:35;;;;;;;21.30;20.30;;;17.70;89.10;;;;;;5041938;28;20545;-74
2021/08/06 05:52:02;;;;;;;20.80;19.80;;;17.80;88.90;;;;;;5039758;28;20451;-73
2021/08/06 05:54:29;;;;;;;21.00;20.00;;;17.90;88.80;;;;;;5043985;28;20482;-73
2021/08/06 05:56:56;;;;;;;21.53;20.37;;;17.80;89.10;;;;;;5040725;28;21003;-72
2021/08/06 05:59:24;;;;;;;23.90;22.50;;;17.90;89.10;;;;;;5050926;28;21016;-74
2021/08/06 06:01:51;;;;;;;23.30;21.90;;;17.90;88.90;;;;;;5038149;28;20542;-75
2021/08/06 06:04:18;;;;;;;23.63;22.33;;;17.90;88.80;;;;;;5045912;28;20461;-74
2021/08/06 06:06:45;;;;;;;22.30;21.10;;;18.00;88.60;;;;;;5048297;28;20466;-73
2021/08/06 06:09:12;;;;;;;21.63;20.50;;;18.10;88.50;;;;;;5043228;28;21292;-74
2021/08/06 06:11:39;;;;;;;22.00;20.40;;;18.10;88.80;;;;;;5035607;28;20460;-74
2021/08/06 06:14:06;;;;;;;24.70;23.30;;;18.20;88.60;;;;;;5044462;28;20461;-75
2021/08/06 06:16:35;;;;;;;23.50;22.30;;;18.20;88.50;;;;;;5045426;28;20479;-75
2021/08/06 06:19:02;;;;;;;25.40;24.00;;;18.30;88.40;;;;;;5041831;28;20499;-74
2021/08/06 06:21:29;;;;;;;24.83;23.43;;;18.40;88.00;;;;;;5043294;28;20550;-75
2021/08/06 06:23:55;;;;;;;21.87;20.67;;;18.50;87.70;;;;;;5040430;28;20455;-75
2021/08/06 06:26:23;;;;;;;23.00;21.70;;;18.60;87.80;;;;;;5044640;28;20482;-75
2021/08/06 06:28:50;;;;;;;24.13;22.30;;;18.60;87.70;;;;;;5044621;28;20444;-74
2021/08/06 06:31:19;;;;;;;23.33;22.03;;;18.70;87.40;;;;;;5044031;28;21026;-75
2021/08/06 06:33:47;;;;;;;23.00;21.80;;;18.70;87.40;;;;;;5042232;28;20871;-75
2021/08/06 06:36:14;;;;;;;24.00;22.77;;;18.80;86.60;;;;;;5046500;28;20802;-73
2021/08/06 06:38:41;;;;;;;23.80;22.60;;;18.90;86.50;;;;;;5041352;28;20459;-72
2021/08/06 06:41:07;;;;;;;27.03;25.53;;;19.00;86.10;;;;;;5048139;28;20972;-73
2021/08/06 06:43:35;;;;;;;25.80;24.33;;;19.20;85.60;;;;;;5036577;28;20547;-73
2021/08/06 06:46:01;;;;;;;26.27;24.87;;;19.20;85.40;;;;;;5048147;28;20491;-74
2021/08/06 06:48:28;;;;;;;24.30;23.00;;;19.20;85.10;;;;;;5047953;28;20458;-73
2021/08/06 06:50:57;;;;;;;25.50;24.07;;;19.20;84.70;;;;;;5048724;28;20873;-74
2021/08/06 06:53:24;;;;;;;28.77;26.67;;;19.20;84.80;;;;;;5047053;28;20554;-74
2021/08/06 06:55:51;;;;;;;40.60;28.87;;;19.00;85.20;;;;;;5044515;28;20459;-73
2021/08/06 06:58:18;;;;;;;26.90;24.30;;;19.10;85.20;;;;;;5041396;28;21170;-73
2021/08/06 07:00:45;;;;;;;25.17;23.50;;;19.10;85.40;;;;;;5042746;28;20542;-73
2021/08/06 07:03:12;;;;;;;25.77;24.30;;;19.10;85.50;;;;;;5038052;28;20538;-73
2021/08/06 07:05:39;;;;;;;25.43;24.13;;;19.20;85.50;;;;;;5046500;28;21063;-73
2021/08/06 07:08:07;;;;;;;24.00;22.70;;;19.40;85.10;;;;;;5047193;28;20467;-74
2021/08/06 07:10:34;;;;;;;24.80;22.87;;;19.70;84.10;;;;;;5044329;28;20562;-74
2021/08/06 07:13:01;;;;;;;23.70;22.40;;;20.10;82.90;;;;;;5045914;28;20487;-74
2021/08/06 07:15:29;;;;;;;24.70;23.43;;;20.40;82.20;;;;;;5048618;28;20455;-75
2021/08/06 07:17:55;;;;;;;25.57;24.27;;;20.60;81.60;;;;;;5046533;28;20560;-74
2021/08/06 07:20:22;;;;;;;25.00;23.60;;;20.80;81.50;;;;;;5038477;28;20469;-73
2021/08/06 07:22:50;;;;;;;24.87;23.57;;;21.00;80.50;;;;;;5043823;28;20451;-73
2021/08/06 07:25:19;;;;;;;25.20;24.00;;;21.00;79.80;;;;;;5045055;28;20545;-73
2021/08/06 07:27:47;;;;;;;24.70;23.30;;;21.00;80.00;;;;;;5043257;28;20467;-73
2021/08/06 07:30:15;;;;;;;25.67;24.20;;;21.10;79.90;;;;;;5040080;28;20558;-73
2021/08/06 07:32:43;;;;;;;29.37;27.77;;;21.10;79.60;;;;;;5040941;28;20530;-73
2021/08/06 07:35:11;;;;;;;27.30;25.60;;;21.10;79.20;;;;;;5035043;28;20443;-73
2021/08/06 07:37:40;;;;;;;26.80;25.10;;;21.10;79.30;;;;;;5041604;28;20478;-73
2021/08/06 07:40:08;;;;;;;28.67;26.77;;;21.00;79.70;;;;;;5043671;28;20462;-73
2021/08/06 07:42:37;;;;;;;26.97;25.47;;;21.00;79.50;;;;;;5041439;28;21101;-73
2021/08/06 07:45:04;;;;;;;27.33;25.83;;;21.00;79.10;;;;;;5044515;28;20854;-73
2021/08/06 07:47:31;;;;;;;27.70;26.10;;;21.00;79.70;;;;;;5045371;28;20471;-73
2021/08/06 07:49:58;;;;;;;27.47;25.97;;;21.00;80.00;;;;;;5038252;28;20532;-73
2021/08/06 07:52:25;;;;;;;28.40;26.77;;;21.20;79.50;;;;;;5037273;28;20530;-73
2021/08/06 07:54:52;;;;;;;28.80;27.20;;;21.20;79.60;;;;;;5044760;28;20443;-73
2021/08/06 07:57:19;;;;;;;27.53;26.03;;;21.10;80.10;;;;;;5036438;28;20570;-73
2021/08/06 07:59:47;;;;;;;25.83;24.43;;;20.80;81.40;;;;;;5046424;28;20475;-73
2021/08/06 08:02:14;;;;;;;28.90;27.20;;;20.50;83.20;;;;;;5044048;28;20455;-73
2021/08/06 08:04:41;;;;;;;23.10;21.90;;;20.30;84.80;;;;;;5039617;28;20466;-73
2021/08/06 08:07:08;;;;;;;23.43;22.27;;;20.10;84.90;;;;;;5042441;28;21004;-73
2021/08/06 08:09:35;;;;;;;24.77;23.47;;;19.90;84.60;;;;;;5047067;28;20551;-73
2021/08/06 08:12:02;;;;;;;23.17;22.07;;;19.70;84.40;;;;;;5042248;28;20759;-73
2021/08/06 08:14:29;;;;;;;22.70;21.40;;;19.50;85.30;;;;;;5042812;28;21016;-73
2021/08/06 08:17:00;;;;;;;24.80;23.50;;;19.40;84.80;;;;;;5045269;28;20581;-73
2021/08/06 08:19:27;;;;;;;23.00;21.80;;;19.40;84.70;;;;;;5042509;28;20459;-73
2021/08/06 08:21:55;;;;;;;22.50;21.30;;;19.50;84.50;;;;;;5038191;28;20554;-73
2021/08/06 08:24:22;;;;;;;22.97;21.77;;;19.50;84.70;;;;;;5037730;28;20881;-73
2021/08/06 08:26:49;;;;;;;23.93;22.73;;;19.70;83.60;;;;;;5041088;28;20467;-73
2021/08/06 08:29:16;;;;;;;26.33;24.93;;;19.80;84.10;;;;;;5043387;28;21533;-73
2021/08/06 08:31:43;;;;;;;23.60;22.30;;;20.00;83.90;;;;;;5041732;28;20471;-73
2021/08/06 08:34:11;;;;;;;23.70;22.27;;;20.10;82.50;;;;;;5038355;28;20489;-73
2021/08/06 08:36:38;;;;;;;24.00;22.60;;;20.40;82.40;;;;;;5041469;28;21024;-73
2021/08/06 08:39:06;;;;;;;27.20;25.80;;;20.70;82.10;;;;;;5045870;28;20470;-73
2021/08/06 08:41:34;;;;;;;27.63;26.23;;;20.90;81.60;;;;;;5034341;28;20551;-73
2021/08/06 08:44:01;;;;;;;26.00;24.40;;;21.10;80.70;;;;;;5037807;28;20891;-73
2021/08/06 08:46:30;;;;;;;26.67;25.27;;;21.40;80.10;;;;;;5041484;28;20471;-73
2021/08/06 08:48:59;;;;;;;26.60;25.10;;;21.50;78.60;;;;;;5040394;28;20452;-73
2021/08/06 08:51:29;;;;;;;28.70;27.27;;;21.70;77.90;;;;;;5039994;28;21158;-73
2021/08/06 08:53:57;;;;;;;26.50;25.00;;;21.80;77.80;;;;;;5038543;28;20469;-72
2021/08/06 08:56:25;;;;;;;27.03;25.53;;;22.00;77.10;;;;;;5042112;28;20481;-72
2021/08/06 08:58:52;;;;;;;25.93;24.63;;;22.10;76.20;;;;;;5038460;28;20546;-73
2021/08/06 09:01:19;;;;;;;28.37;26.90;;;22.30;76.10;;;;;;5035334;28;20791;-76
2021/08/06 09:03:48;;;;;;;27.90;26.20;;;22.60;74.90;;;;;;5036182;28;20545;-72
2021/08/06 09:06:20;;;;;;;26.40;24.90;;;22.70;75.90;;;;;;5036205;28;20505;-72
2021/08/06 09:08:49;;;;;;;26.63;25.23;;;22.80;74.90;;;;;;5039591;28;20846;-72
2021/08/06 09:11:27;;;;;;;26.80;25.30;;;22.90;73.40;;;;;;5044345;28;20546;-72
2021/08/06 09:13:55;;;;;;;27.30;25.80;;;22.90;73.30;;;;;;5041125;28;20549;-72
2021/08/06 09:16:22;;;;;;;27.80;26.30;;;23.00;72.70;;;;;;5040378;28;20559;-71
2021/08/06 09:18:48;;;;;;;26.50;25.10;;;23.10;72.80;;;;;;5041620;28;20600;-72
2021/08/06 09:21:23;;;;;;;29.03;27.40;;;23.30;72.90;;;;;;5030860;28;20460;-72
2021/08/06 09:23:53;;;;;;;30.73;29.23;;;23.40;71.20;;;;;;5043308;28;20467;-72
2021/08/06 09:26:37;;;;;;;27.30;25.90;;;23.40;70.50;;;;;;5046446;28;20481;-72
2021/08/06 09:29:07;;;;;;;28.67;27.17;;;23.30;70.50;;;;;;5042065;28;20454;-72
2021/08/06 09:31:35;;;;;;;27.53;26.03;;;23.30;71.00;;;;;;5043872;28;20463;-72
2021/08/06 09:34:17;;;;;;;30.20;28.60;;;23.20;71.00;;;;;;5045070;28;20462;-73
2021/08/06 09:37:02;;;;;;;29.07;27.57;;;23.10;70.30;;;;;;5041299;28;20494;-72
2021/08/06 09:39:37;;;;;;;27.67;26.03;;;23.10;70.60;;;;;;5042819;28;20459;-74
2021/08/06 09:42:06;;;;;;;27.57;25.93;;;22.90;70.10;;;;;;5040846;28;20492;-72
2021/08/06 09:44:33;;;;;;;28.60;27.10;;;22.90;70.20;;;;;;5034084;28;20455;-72
2021/08/06 09:47:17;;;;;;;27.40;25.90;;;22.90;69.80;;;;;;5043490;28;20471;-72
2021/08/06 09:49:45;;;;;;;29.63;28.07;;;22.80;70.40;;;;;;5044323;28;20494;-73
2021/08/06 09:52:13;;;;;;;27.27;25.77;;;22.90;69.20;;;;;;5049305;28;20454;-72
2021/08/06 09:54:48;;;;;;;29.63;28.03;;;22.90;69.60;;;;;;5039825;28;20463;-72
2021/08/06 09:57:16;;;;;;;27.23;25.73;;;22.90;69.30;;;;;;5047550;28;20474;-73
2021/08/06 09:59:43;;;;;;;27.90;26.40;;;22.90;69.80;;;;;;5050003;28;20498;-73
2021/08/06 10:02:16;;;;;;;27.87;26.37;;;23.00;69.40;;;;;;5042409;28;20451;-73
2021/08/06 10:04:55;;;;;;;29.13;27.53;;;23.00;69.30;;;;;;5045843;28;20529;-72
2021/08/06 10:07:22;;;;;;;30.60;29.00;;;23.10;67.30;;;;;;5040875;28;21283;-72
2021/08/06 10:09:51;;;;;;;29.00;27.37;;;23.00;66.60;;;;;;5048366;28;20458;-76
2021/08/06 11:15:21;;;;;;;28.70;27.20;;;22.20;66.00;;;;;;5146649;27;20571;-77
2021/08/06 11:17:51;;;;;;;32.23;30.43;;;22.10;67.40;;;;;;5123259;27;20579;-79
2021/08/06 11:20:20;;;;;;;31.63;29.93;;;22.30;66.40;;;;;;5122252;27;20546;-77
2021/08/06 11:22:48;;;;;;;28.70;26.90;;;22.30;66.30;;;;;;5119201;27;20463;-77
2021/08/06 11:25:22;;;;;;;28.77;27.00;;;22.50;66.50;;;;;;5123290;28;20453;-77
2021/08/06 11:27:51;;;;;;;31.83;29.90;;;22.70;66.20;;;;;;5122414;28;20508;-78
2021/08/06 11:30:19;;;;;;;28.77;27.10;;;22.90;65.50;;;;;;5116542;27;20491;-77
2021/08/06 11:32:54;;;;;;;32.50;30.60;;;23.20;64.50;;;;;;5116109;27;20531;-79
2021/08/06 11:35:22;;;;;;;28.87;27.27;;;23.40;63.10;;;;;;5120186;27;20486;-78
2021/08/06 11:37:53;;;;;;;27.70;26.20;;;23.40;64.70;;;;;;5126248;27;20544;-77
2021/08/06 11:40:22;;;;;;;30.03;28.40;;;23.40;62.90;;;;;;5115337;28;20460;-81
2021/08/06 11:42:50;;;;;;;28.50;27.00;;;23.30;63.50;;;;;;5126027;27;20474;-79
2021/08/06 11:45:19;;;;;;;28.17;26.60;;;23.40;62.80;;;;;;5123366;27;20452;-79
2021/08/06 11:47:48;;;;;;;26.93;25.43;;;23.40;62.80;;;;;;5125488;27;20558;-78
2021/08/06 11:50:18;;;;;;;27.63;26.13;;;23.40;62.10;;;;;;5121044;27;20482;-77
2021/08/06 11:52:47;;;;;;;28.97;27.37;;;23.30;62.90;;;;;;5127683;27;20455;-76
2021/08/06 11:55:16;;;;;;;28.40;26.80;;;23.40;62.10;;;;;;5121585;27;20470;-76
2021/08/06 11:57:50;;;;;;;27.13;25.63;;;23.10;62.20;;;;;;5125787;27;20463;-76
2021/08/06 12:00:20;;;;;;;26.87;25.37;;;23.10;62.30;;;;;;5124476;27;20507;-76
2021/08/06 12:02:48;;;;;;;30.97;29.27;;;23.10;62.70;;;;;;5119793;27;20463;-76
2021/08/06 12:05:22;;;;;;;30.17;28.57;;;23.20;62.60;;;;;;5115190;28;20556;-75
2021/08/06 12:07:49;;;;;;;29.60;28.00;;;23.40;62.60;;;;;;5113588;27;20912;-75
2021/08/06 12:10:16;;;;;;;27.73;26.07;;;23.40;61.90;;;;;;5115575;28;20479;-76
2021/08/06 12:12:44;;;;;;;27.07;25.57;;;23.40;61.20;;;;;;5111630;27;20493;-76
2021/08/06 12:15:21;;;;;;;27.03;25.53;;;23.40;61.60;;;;;;5106324;28;20555;-76
2021/08/06 12:17:48;;;;;;;30.67;29.07;;;23.50;61.70;;;;;;5123566;27;20863;-75
2021/08/06 12:20:37;;;;;;;28.80;27.10;;;23.60;60.70;;;;;;5116371;27;20530;-76
2021/08/06 12:23:05;;;;;;;32.17;30.37;;;23.80;60.80;;;;;;5120651;27;20452;-76
2021/08/06 12:25:32;;;;;;;30.87;29.07;;;23.90;59.80;;;;;;5104346;28;20445;-76
2021/08/06 12:28:00;;;;;;;30.40;28.50;;;24.00;59.40;;;;;;5106487;27;20471;-76
2021/08/06 12:30:29;;;;;;;27.03;25.53;;;24.20;58.60;;;;;;5107539;28;20548;-76
2021/08/06 12:32:56;;;;;;;28.23;26.63;;;24.20;59.20;;;;;;5111681;28;20545;-76
2021/08/06 12:35:25;;;;;;;27.73;26.23;;;24.40;58.80;;;;;;5104445;28;20568;-75
2021/08/06 12:37:54;;;;;;;28.37;26.60;;;24.60;59.00;;;;;;5109402;27;21219;-74
2021/08/06 12:40:22;;;;;;;28.87;27.10;;;24.60;58.00;;;;;;5101893;27;20462;-75
2021/08/06 12:42:49;;;;;;;28.90;27.30;;;24.70;58.20;;;;;;5106497;28;21023;-75
2021/08/06 12:45:21;;;;;;;28.90;27.20;;;24.80;57.40;;;;;;5108048;27;20555;-75
2021/08/06 12:47:49;;;;;;;31.10;29.57;;;25.00;56.30;;;;;;5111593;27;21245;-75
2021/08/06 12:50:24;;;;;;;27.90;26.30;;;25.00;56.80;;;;;;5104379;28;20935;-75
2021/08/06 12:53:02;;;;;;;27.87;26.27;;;25.10;56.90;;;;;;5109158;27;20451;-75
2021/08/06 12:55:30;;;;;;;30.57;28.77;;;25.20;56.30;;;;;;5103341;27;20534;-75
2021/08/06 12:57:58;;;;;;;30.33;28.33;;;25.10;57.30;;;;;;5098040;28;20849;-75
2021/08/06 13:00:30;;;;;;;26.70;25.20;;;24.60;56.30;;;;;;5106764;28;20483;-74
2021/08/06 13:03:02;;;;;;;32.03;30.13;;;24.20;58.20;;;;;;5111003;28;20990;-75
2021/08/06 13:05:29;;;;;;;28.80;27.20;;;24.30;58.20;;;;;;5106780;28;20449;-75
2021/08/06 13:08:09;;;;;;;27.90;26.30;;;24.30;56.70;;;;;;5109445;27;20498;-74
2021/08/06 13:10:37;;;;;;;26.80;25.20;;;24.30;57.40;;;;;;5106639;28;20551;-75
2021/08/06 13:13:04;;;;;;;30.53;28.80;;;24.30;57.50;;;;;;5112197;27;20468;-75
2021/08/06 13:15:31;;;;;;;30.47;28.80;;;24.30;57.00;;;;;;5106646;28;20481;-74
2021/08/06 13:17:57;;;;;;;26.90;25.50;;;24.50;56.60;;;;;;5110258;28;20507;-75
2021/08/06 13:20:24;;;;;;;30.47;28.87;;;24.60;56.70;;;;;;5107550;28;20453;-73
2021/08/06 13:22:51;;;;;;;28.00;26.60;;;24.70;57.10;;;;;;5110951;28;20452;-73
2021/08/06 13:25:19;;;;;;;28.80;27.27;;;24.80;56.60;;;;;;5107943;28;20463;-73
2021/08/06 13:27:48;;;;;;;29.00;27.20;;;24.80;56.60;;;;;;5105645;28;20920;-73
2021/08/06 13:30:15;;;;;;;27.20;25.60;;;24.80;55.90;;;;;;5108934;27;20552;-73
2021/08/06 13:32:42;;;;;;;30.80;29.00;;;24.70;56.20;;;;;;5100432;28;21018;-73
2021/08/06 13:35:09;;;;;;;29.50;27.87;;;24.80;56.00;;;;;;5105766;28;20480;-73
2021/08/06 13:37:36;;;;;;;31.03;29.33;;;25.00;55.50;;;;;;5104776;28;20475;-73